createdAt,value
2018-06-10T00:00:51.437Z,54
2018-06-10T00:01:53.424Z,54
2018-06-10T00:02:55.407Z,55
2018-06-10T00:03:57.387Z,55
2018-06-10T00:04:59.384Z,55
2018-06-10T00:06:01.388Z,57
2018-06-10T00:07:03.387Z,58
2018-06-10T00:08:05.402Z,59
2018-06-10T00:09:07.407Z,60
2018-06-10T00:10:09.409Z,60
2018-06-10T00:11:11.699Z,60
2018-06-10T00:12:13.697Z,59
2018-06-10T00:13:15.714Z,58
2018-06-10T00:14:17.713Z,58
2018-06-10T00:15:20.380Z,57
2018-06-10T00:16:22.387Z,57
2018-06-10T00:17:24.388Z,57
2018-06-10T00:18:26.402Z,57
2018-06-10T00:19:28.403Z,56
2018-06-10T00:20:30.401Z,56
2018-06-10T00:21:32.691Z,57
2018-06-10T00:22:34.755Z,57
2018-06-10T00:23:36.757Z,57
2018-06-10T00:24:38.761Z,58
2018-06-10T00:25:40.766Z,58
2018-06-10T00:26:42.769Z,58
2018-06-10T00:27:44.819Z,59
2018-06-10T00:28:47.121Z,60
2018-06-10T00:29:49.480Z,60
2018-06-10T00:30:51.475Z,60
2018-06-10T00:31:53.482Z,61
2018-06-10T00:32:55.785Z,60
2018-06-10T00:33:57.786Z,60
2018-06-10T00:34:59.781Z,60
2018-06-10T00:36:01.880Z,60
2018-06-10T00:37:03.890Z,60
2018-06-10T00:38:06.283Z,60
2018-06-10T00:39:08.278Z,60
2018-06-10T00:40:10.283Z,60
2018-06-10T00:41:12.286Z,60
2018-06-10T00:42:14.283Z,59
2018-06-10T00:43:16.355Z,59
2018-06-10T00:44:18.360Z,60
2018-06-10T00:45:20.369Z,60
2018-06-10T00:46:22.364Z,60
2018-06-10T00:47:24.431Z,60
2018-06-10T00:48:26.452Z,61
2018-06-10T00:49:28.448Z,60
2018-06-10T00:50:31.121Z,61
2018-06-10T00:51:33.128Z,61
2018-06-10T00:52:35.403Z,60
2018-06-10T00:53:37.761Z,61
2018-06-10T00:54:39.763Z,61
2018-06-10T00:55:42.037Z,61
2018-06-10T00:56:44.049Z,61
2018-06-10T00:57:46.329Z,62
2018-06-10T00:58:48.339Z,63
2018-06-10T00:59:50.350Z,64
2018-06-10T01:00:53.055Z,62
2018-06-10T01:01:55.069Z,62
2018-06-10T01:02:57.064Z,61
2018-06-10T01:03:59.068Z,61
2018-06-10T01:05:01.148Z,61
2018-06-10T01:06:03.158Z,61
2018-06-10T01:07:05.156Z,61
2018-06-10T01:08:07.159Z,60
2018-06-10T01:09:09.161Z,61
2018-06-10T01:10:11.230Z,61
2018-06-10T01:11:13.499Z,60
2018-06-10T01:12:15.528Z,60
2018-06-10T01:13:17.531Z,61
2018-06-10T01:14:19.814Z,62
2018-06-10T01:15:21.818Z,63
2018-06-10T01:16:23.883Z,63
2018-06-10T01:17:25.892Z,63
2018-06-10T01:18:27.896Z,63
2018-06-10T01:19:29.898Z,63
2018-06-10T01:20:31.917Z,63
2018-06-10T01:21:34.186Z,63
2018-06-10T01:22:36.195Z,64
2018-06-10T01:23:38.200Z,63
2018-06-10T01:24:40.486Z,64
2018-06-10T01:25:42.770Z,64
2018-06-10T01:26:45.056Z,64
2018-06-10T01:27:47.187Z,64
2018-06-10T01:28:49.208Z,64
2018-06-10T01:29:51.203Z,65
2018-06-10T01:30:53.207Z,64
2018-06-10T01:31:55.205Z,64
2018-06-10T01:32:57.211Z,64
2018-06-10T01:33:59.205Z,64
2018-06-10T01:35:01.212Z,64
2018-06-10T01:36:03.228Z,64
2018-06-10T01:37:05.511Z,63
2018-06-10T01:38:07.508Z,64
2018-06-10T01:39:09.508Z,64
2018-06-10T01:40:11.518Z,64
2018-06-10T01:41:13.520Z,65
2018-06-10T01:42:15.518Z,66
2018-06-10T01:43:17.818Z,66
2018-06-10T01:44:19.819Z,66
2018-06-10T01:45:21.810Z,66
2018-06-10T01:46:23.812Z,66
2018-06-10T01:47:25.809Z,66
2018-06-10T01:48:28.123Z,66
2018-06-10T01:49:30.131Z,66
2018-06-10T01:50:32.126Z,66
2018-06-10T01:51:34.133Z,66
2018-06-10T01:52:36.519Z,66
2018-06-10T01:53:38.522Z,66
2018-06-10T01:54:40.536Z,66
2018-06-10T01:55:42.534Z,67
2018-06-10T01:56:44.816Z,67
2018-06-10T01:57:46.820Z,67
2018-06-10T01:58:49.210Z,67
2018-06-10T01:59:51.605Z,67
2018-06-10T02:00:53.595Z,67
2018-06-10T02:01:55.598Z,67
2018-06-10T02:02:57.606Z,67
2018-06-10T02:03:59.886Z,67
2018-06-10T02:05:02.585Z,67
2018-06-10T02:06:04.583Z,67
2018-06-10T02:07:06.594Z,67
2018-06-10T02:08:08.882Z,67
2018-06-10T02:09:13.921Z,67
2018-06-10T02:10:15.963Z,67
2018-06-10T02:11:18.007Z,66
2018-06-10T02:12:20.356Z,67
2018-06-10T02:13:22.679Z,67
2018-06-10T02:14:24.733Z,67
2018-06-10T02:15:26.774Z,67
2018-06-10T02:16:28.821Z,67
2018-06-10T02:17:30.874Z,67
2018-06-10T02:18:32.913Z,67
2018-06-10T02:19:34.967Z,68
2018-06-10T02:20:37.010Z,68
2018-06-10T02:21:39.059Z,67
2018-06-10T02:22:41.112Z,67
2018-06-10T02:23:43.150Z,67
2018-06-10T02:24:45.205Z,67
2018-06-10T02:25:47.240Z,67
2018-06-10T02:26:49.286Z,67
2018-06-10T02:27:51.349Z,68
2018-06-10T02:28:53.393Z,67
2018-06-10T02:29:55.429Z,67
2018-06-10T02:30:57.746Z,67
2018-06-10T02:32:00.176Z,67
2018-06-10T02:33:02.542Z,67
2018-06-10T02:34:04.876Z,67
2018-06-10T02:35:06.936Z,67
2018-06-10T02:36:09.280Z,67
2018-06-10T02:37:11.322Z,67
2018-06-10T02:38:13.649Z,67
2018-06-10T02:39:15.695Z,68
2018-06-10T02:40:18.026Z,68
2018-06-10T02:41:20.354Z,67
2018-06-10T02:42:22.395Z,68
2018-06-10T02:43:24.415Z,67
2018-06-10T02:44:26.688Z,67
2018-06-10T02:45:28.695Z,67
2018-06-10T02:46:30.694Z,67
2018-06-10T02:47:32.698Z,67
2018-06-10T02:48:34.705Z,67
2018-06-10T02:49:36.701Z,67
2018-06-10T02:50:39.658Z,67
2018-06-10T02:51:41.658Z,67
2018-06-10T02:52:43.657Z,67
2018-06-10T02:53:46.232Z,68
2018-06-10T02:54:48.234Z,68
2018-06-10T02:55:50.247Z,68
2018-06-10T02:56:52.244Z,68
2018-06-10T02:57:54.561Z,68
2018-06-10T02:58:56.861Z,68
2018-06-10T02:59:59.419Z,67
2018-06-10T03:01:01.705Z,67
2018-06-10T03:02:03.719Z,67
2018-06-10T03:03:05.726Z,67
2018-06-10T03:04:08.794Z,67
2018-06-10T03:05:11.078Z,67
2018-06-10T03:06:13.079Z,68
2018-06-10T03:07:15.751Z,69
2018-06-10T03:08:17.742Z,69
2018-06-10T03:09:20.038Z,69
2018-06-10T03:10:22.041Z,69
2018-06-10T03:11:24.055Z,69
2018-06-10T03:12:26.062Z,69
2018-06-10T03:13:28.062Z,69
2018-06-10T03:14:30.450Z,69
2018-06-10T03:15:32.448Z,69
2018-06-10T03:16:34.454Z,69
2018-06-10T03:17:37.133Z,69
2018-06-10T03:18:39.157Z,69
2018-06-10T03:19:41.138Z,69
2018-06-10T03:20:43.140Z,69
2018-06-10T03:21:45.146Z,69
2018-06-10T03:22:47.159Z,68
2018-06-10T03:23:49.165Z,68
2018-06-10T03:24:51.368Z,68
2018-06-10T03:25:53.381Z,69
2018-06-10T03:26:55.385Z,68
2018-06-10T03:27:57.386Z,68
2018-06-10T03:28:59.385Z,68
2018-06-10T03:30:01.394Z,67
2018-06-10T03:31:03.702Z,67
2018-06-10T03:32:06.361Z,67
2018-06-10T03:33:08.644Z,68
2018-06-10T03:34:10.654Z,68
2018-06-10T03:35:12.656Z,68
2018-06-10T03:36:14.663Z,67
2018-06-10T03:37:17.047Z,67
2018-06-10T03:38:19.640Z,67
2018-06-10T03:39:21.958Z,67
2018-06-10T03:40:24.232Z,67
2018-06-10T03:41:26.235Z,67
2018-06-10T03:42:28.243Z,67
2018-06-10T03:43:30.238Z,67
2018-06-10T03:44:32.244Z,66
2018-06-10T03:45:34.247Z,67
2018-06-10T03:46:36.250Z,68
2018-06-10T03:47:38.257Z,68
2018-06-10T03:48:40.251Z,68
2018-06-10T03:49:42.259Z,68
2018-06-10T03:50:44.263Z,69
2018-06-10T03:51:46.263Z,68
2018-06-10T03:52:48.273Z,69
2018-06-10T03:53:50.324Z,69
2018-06-10T03:54:52.372Z,68
2018-06-10T03:55:54.416Z,69
2018-06-10T03:56:56.459Z,68
2018-06-10T03:57:58.493Z,67
2018-06-10T03:59:00.537Z,68
2018-06-10T04:00:02.543Z,68
2018-06-10T04:01:04.836Z,68
2018-06-10T04:02:06.855Z,68
2018-06-10T04:03:09.143Z,68
2018-06-10T04:04:11.437Z,68
2018-06-10T04:05:13.441Z,68
2018-06-10T04:06:15.447Z,67
2018-06-10T04:07:17.845Z,68
2018-06-10T04:08:19.840Z,67
2018-06-10T04:09:21.850Z,66
2018-06-10T04:10:24.133Z,67
2018-06-10T04:11:26.138Z,66
2018-06-10T04:12:28.136Z,67
2018-06-10T04:13:30.135Z,66
2018-06-10T04:14:32.154Z,66
2018-06-10T04:15:34.155Z,67
2018-06-10T04:16:36.155Z,67
2018-06-10T04:17:38.163Z,66
2018-06-10T04:18:40.165Z,66
2018-06-10T04:19:42.177Z,66
2018-06-10T04:20:44.477Z,67
2018-06-10T04:21:47.157Z,66
2018-06-10T04:22:49.160Z,66
2018-06-10T04:23:51.442Z,66
2018-06-10T04:24:53.876Z,65
2018-06-10T04:25:56.187Z,65
2018-06-10T04:26:58.188Z,65
2018-06-10T04:28:00.221Z,68
2018-06-10T04:29:02.244Z,67
2018-06-10T04:30:05.214Z,67
2018-06-10T04:31:07.623Z,67
2018-06-10T04:32:09.955Z,68
2018-06-10T04:33:12.002Z,67
2018-06-10T04:34:14.041Z,68
2018-06-10T04:35:16.090Z,67
2018-06-10T04:36:18.135Z,66
2018-06-10T04:37:20.187Z,66
2018-06-10T04:38:22.227Z,66
2018-06-10T04:39:24.287Z,67
2018-06-10T04:40:26.325Z,67
2018-06-10T04:41:28.374Z,68
2018-06-10T04:42:30.991Z,69
2018-06-10T04:43:33.348Z,68
2018-06-10T04:44:36.064Z,69
2018-06-10T04:45:38.113Z,69
2018-06-10T04:46:40.153Z,68
2018-06-10T04:47:42.199Z,68
2018-06-10T04:48:44.245Z,69
2018-06-10T04:49:46.576Z,69
2018-06-10T04:50:48.623Z,69
2018-06-10T04:51:50.677Z,69
2018-06-10T04:52:52.716Z,68
2018-06-10T04:53:54.769Z,68
2018-06-10T04:54:56.823Z,68
2018-06-10T04:55:58.868Z,68
2018-06-10T04:57:00.917Z,68
2018-06-10T04:58:02.957Z,67
2018-06-10T04:59:05.004Z,67
2018-06-10T05:00:07.053Z,68
2018-06-10T05:01:09.379Z,67
2018-06-10T05:02:11.436Z,66
2018-06-10T05:03:13.760Z,66
2018-06-10T05:04:15.805Z,67
2018-06-10T05:05:18.148Z,66
2018-06-10T05:06:20.166Z,66
2018-06-10T05:07:22.167Z,68
2018-06-10T05:08:24.493Z,66
2018-06-10T05:09:56.611Z,66
2018-06-10T05:10:58.655Z,66
2018-06-10T05:12:01.319Z,66
2018-06-10T05:13:03.644Z,65
2018-06-10T05:14:05.650Z,65
2018-06-10T05:15:07.935Z,64
2018-06-10T05:16:09.946Z,64
2018-06-10T05:17:11.953Z,65
2018-06-10T05:18:13.962Z,64
2018-06-10T05:19:15.978Z,64
2018-06-10T05:20:17.985Z,63
2018-06-10T05:21:19.998Z,64
2018-06-10T05:22:22.383Z,63
2018-06-10T05:23:24.386Z,63
2018-06-10T05:24:26.774Z,63
2018-06-10T05:25:28.791Z,62
2018-06-10T05:26:31.172Z,63
2018-06-10T05:27:33.189Z,62
2018-06-10T05:28:35.477Z,63
2018-06-10T05:29:37.757Z,64
2018-06-10T05:30:39.760Z,63
2018-06-10T05:31:41.769Z,65
2018-06-10T05:32:43.774Z,63
2018-06-10T05:33:45.779Z,63
2018-06-10T05:34:48.055Z,62
2018-06-10T05:35:50.062Z,62
2018-06-10T05:36:52.058Z,61
2018-06-10T05:37:54.074Z,62
2018-06-10T05:38:56.075Z,61
2018-06-10T05:39:58.087Z,62
2018-06-10T05:41:00.087Z,63
2018-06-10T05:42:02.767Z,63
2018-06-10T05:43:04.768Z,62
2018-06-10T05:44:06.797Z,62
2018-06-10T05:45:11.851Z,60
2018-06-10T05:46:45.342Z,63
2018-06-10T05:47:47.390Z,63
2018-06-10T05:48:49.443Z,62
2018-06-10T05:49:51.862Z,61
2018-06-10T05:50:53.893Z,61
2018-06-10T05:51:55.935Z,61
2018-06-10T05:52:57.993Z,60
2018-06-10T05:54:00.043Z,60
2018-06-10T05:55:02.090Z,61
2018-06-10T05:56:04.140Z,60
2018-06-10T05:57:06.184Z,61
2018-06-10T05:58:08.543Z,60
2018-06-10T05:59:11.272Z,60
2018-06-10T06:00:13.322Z,60
2018-06-10T06:01:15.379Z,60
2018-06-10T06:02:17.426Z,60
2018-06-10T06:03:19.784Z,60
2018-06-10T06:04:22.114Z,60
2018-06-10T06:05:24.147Z,59
2018-06-10T06:06:26.205Z,59
2018-06-10T06:07:28.259Z,59
2018-06-10T06:08:30.690Z,59
2018-06-10T06:09:32.739Z,59
2018-06-10T06:10:34.787Z,59
2018-06-10T06:11:36.837Z,59
2018-06-10T06:12:38.877Z,59
2018-06-10T06:13:40.933Z,59
2018-06-10T06:14:42.988Z,58
2018-06-10T06:15:45.034Z,59
2018-06-10T06:16:47.084Z,58
2018-06-10T06:17:49.138Z,58
2018-06-10T06:18:51.185Z,58
2018-06-10T06:19:53.226Z,58
2018-06-10T06:20:55.273Z,59
2018-06-10T06:21:57.326Z,58
2018-06-10T06:22:59.670Z,58
2018-06-10T06:24:01.994Z,58
2018-06-10T06:25:04.044Z,59
2018-06-10T06:26:06.098Z,58
2018-06-10T06:27:08.143Z,58
2018-06-10T06:28:10.192Z,58
2018-06-10T06:29:12.632Z,58
2018-06-10T06:30:14.689Z,57
2018-06-10T06:31:16.725Z,57
2018-06-10T06:32:18.775Z,57
2018-06-10T06:33:21.293Z,56
2018-06-10T06:34:23.283Z,57
2018-06-10T06:35:25.335Z,56
2018-06-10T06:36:27.694Z,56
2018-06-10T06:37:30.040Z,56
2018-06-10T06:38:32.460Z,56
2018-06-10T06:39:34.519Z,56
2018-06-10T06:40:36.568Z,55
2018-06-10T06:41:39.017Z,55
2018-06-10T06:42:41.059Z,56
2018-06-10T06:43:43.114Z,55
2018-06-10T06:44:45.170Z,54
2018-06-10T06:45:47.515Z,55
2018-06-10T06:46:49.859Z,55
2018-06-10T06:47:51.928Z,52
2018-06-10T06:48:53.978Z,52
2018-06-10T06:49:56.032Z,51
2018-06-10T06:50:58.090Z,52
2018-06-10T06:52:00.147Z,52
2018-06-10T06:53:02.506Z,53
2018-06-10T06:54:04.559Z,53
2018-06-10T06:55:06.610Z,55
2018-06-10T06:56:08.668Z,54
2018-06-10T06:57:11.087Z,52
2018-06-10T06:58:13.149Z,54
2018-06-10T06:59:15.203Z,52
2018-06-10T07:00:17.256Z,52
2018-06-10T07:01:19.309Z,51
2018-06-10T07:02:21.360Z,51
2018-06-10T07:03:23.413Z,51
2018-06-10T07:04:25.458Z,51
2018-06-10T07:05:27.524Z,50
2018-06-10T07:06:29.585Z,50
2018-06-10T07:07:31.642Z,49
2018-06-10T07:08:33.687Z,49
2018-06-10T07:09:35.740Z,49
2018-06-10T07:10:37.793Z,50
2018-06-10T07:11:39.847Z,49
2018-06-10T07:12:41.908Z,49
2018-06-10T07:13:44.268Z,49
2018-06-10T07:14:46.318Z,49
2018-06-10T07:15:48.672Z,49
2018-06-10T07:16:50.724Z,49
2018-06-10T07:17:52.777Z,48
2018-06-10T07:18:54.814Z,48
2018-06-10T07:19:57.253Z,48
2018-06-10T07:20:59.238Z,48
2018-06-10T07:22:01.295Z,48
2018-06-10T07:23:03.346Z,48
2018-06-10T07:24:05.397Z,48
2018-06-10T07:25:07.455Z,48
2018-06-10T07:26:09.510Z,48
2018-06-10T07:27:11.552Z,48
2018-06-10T07:28:13.913Z,48
2018-06-10T07:29:15.955Z,50
2018-06-10T07:30:18.289Z,52
2018-06-10T07:31:20.346Z,53
2018-06-10T07:32:22.394Z,54
2018-06-10T07:33:24.495Z,49
2018-06-10T07:34:26.503Z,49
2018-06-10T07:35:28.557Z,49
2018-06-10T07:36:31.289Z,49
2018-06-10T07:37:33.627Z,49
2018-06-10T07:38:35.687Z,49
2018-06-10T07:39:37.742Z,49
2018-06-10T07:40:39.892Z,49
2018-06-10T07:41:41.851Z,49
2018-06-10T07:42:43.912Z,49
2018-06-10T07:43:45.961Z,48
2018-06-10T07:44:48.007Z,47
2018-06-10T07:45:50.059Z,47
2018-06-10T07:46:52.814Z,51
2018-06-10T07:47:55.143Z,47
2018-06-10T07:48:57.588Z,51
2018-06-10T07:49:59.640Z,46
2018-06-10T07:51:01.705Z,46
2018-06-10T07:52:04.355Z,44
2018-06-10T07:53:06.693Z,46
2018-06-10T07:54:08.737Z,44
2018-06-10T07:55:11.103Z,46
2018-06-10T07:56:14.017Z,42
2018-06-10T07:57:16.358Z,43
2018-06-10T07:58:18.705Z,41
2018-06-10T07:59:20.757Z,40
2018-06-10T08:00:22.817Z,40
2018-06-10T08:01:24.870Z,40
2018-06-10T08:02:26.933Z,40
2018-06-10T08:03:28.999Z,39
2018-06-10T08:04:31.057Z,39
2018-06-10T08:05:33.114Z,39
2018-06-10T08:06:35.168Z,39
2018-06-10T08:07:37.214Z,39
2018-06-10T08:08:39.279Z,40
2018-06-10T08:09:41.322Z,40
2018-06-10T08:10:43.381Z,39
2018-06-10T08:11:45.834Z,39
2018-06-10T08:12:47.871Z,39
2018-06-10T08:13:50.317Z,39
2018-06-10T08:14:52.382Z,39
2018-06-10T08:15:54.437Z,39
2018-06-10T08:16:56.496Z,39
2018-06-10T08:17:58.554Z,39
2018-06-10T08:19:00.909Z,38
2018-06-10T08:20:03.174Z,38
2018-06-10T08:21:05.223Z,39
2018-06-10T08:22:07.289Z,38
2018-06-10T08:23:09.337Z,38
2018-06-10T08:24:11.399Z,38
2018-06-10T08:25:13.452Z,37
2018-06-10T08:26:15.788Z,37
2018-06-10T08:27:18.238Z,37
2018-06-10T08:28:21.145Z,37
2018-06-10T08:29:23.480Z,38
2018-06-10T08:30:25.532Z,38
2018-06-10T08:31:27.592Z,41
2018-06-10T08:32:29.643Z,42
2018-06-10T08:33:31.707Z,45
2018-06-10T08:34:34.039Z,45
2018-06-10T08:35:36.101Z,45
2018-06-10T08:36:38.170Z,42
2018-06-10T08:37:40.221Z,40
2018-06-10T08:38:42.265Z,41
2018-06-10T08:39:44.620Z,40
2018-06-10T08:40:46.676Z,40
2018-06-10T08:41:48.739Z,40
2018-06-10T08:42:50.783Z,42
2018-06-10T08:43:52.929Z,42
2018-06-10T08:44:54.910Z,40
2018-06-10T08:45:57.279Z,42
2018-06-10T08:46:59.333Z,43
2018-06-10T08:48:01.680Z,39
2018-06-10T08:49:04.129Z,38
2018-06-10T08:50:06.181Z,37
2018-06-10T08:51:08.237Z,38
2018-06-10T08:52:10.291Z,39
2018-06-10T08:53:12.331Z,38
2018-06-10T08:54:14.390Z,36
2018-06-10T08:55:16.455Z,36
2018-06-10T08:56:18.507Z,35
2018-06-10T08:57:20.556Z,35
2018-06-10T08:58:22.616Z,37
2018-06-10T08:59:25.048Z,37
2018-06-10T09:00:27.404Z,37
2018-06-10T09:01:29.456Z,37
2018-06-10T09:02:31.526Z,38
2018-06-10T09:03:33.970Z,38
2018-06-10T09:04:36.024Z,38
2018-06-10T09:05:38.074Z,38
2018-06-10T09:06:40.129Z,40
2018-06-10T09:07:42.202Z,40
2018-06-10T09:08:44.326Z,38
2018-06-10T09:09:46.305Z,37
2018-06-10T09:10:48.358Z,39
2018-06-10T09:11:50.724Z,39
2018-06-10T09:12:52.786Z,40
2018-06-10T09:13:54.852Z,40
2018-06-10T09:14:56.902Z,39
2018-06-10T09:15:58.975Z,38
2018-06-10T09:17:01.021Z,36
2018-06-10T09:18:03.081Z,38
2018-06-10T09:19:05.154Z,37
2018-06-10T09:20:07.503Z,35
2018-06-10T09:21:09.561Z,38
2018-06-10T09:22:11.640Z,35
2018-06-10T09:23:13.671Z,37
2018-06-10T09:24:15.742Z,36
2018-06-10T09:25:18.374Z,35
2018-06-10T09:26:20.453Z,34
2018-06-10T09:27:22.515Z,33
2018-06-10T09:28:25.272Z,35
2018-06-10T09:29:27.333Z,37
2018-06-10T09:30:29.692Z,35
2018-06-10T09:31:31.758Z,36
2018-06-10T09:32:33.819Z,38
2018-06-10T09:33:36.157Z,35
2018-06-10T09:34:38.236Z,36
2018-06-10T09:35:40.275Z,34
2018-06-10T09:36:42.343Z,37
2018-06-10T09:37:44.702Z,38
2018-06-10T09:38:46.766Z,35
2018-06-10T09:39:48.828Z,37
2018-06-10T09:40:50.892Z,37
2018-06-10T09:41:53.516Z,34
2018-06-10T09:42:55.589Z,34
2018-06-10T09:43:57.639Z,34
2018-06-10T09:44:59.706Z,36
2018-06-10T09:46:01.767Z,36
2018-06-10T09:47:03.826Z,37
2018-06-10T09:48:06.572Z,35
2018-06-10T09:49:08.629Z,34
2018-06-10T09:50:10.677Z,35
2018-06-10T09:51:13.058Z,37
2018-06-10T09:52:15.425Z,37
2018-06-10T09:53:17.768Z,38
2018-06-10T09:54:19.830Z,38
2018-06-10T09:55:21.922Z,36
2018-06-10T09:56:23.957Z,35
2018-06-10T09:57:26.010Z,36
2018-06-10T09:58:28.072Z,35
2018-06-10T09:59:30.137Z,34
2018-06-10T10:00:32.586Z,35
2018-06-10T10:01:34.649Z,35
2018-06-10T10:02:36.719Z,35
2018-06-10T10:03:38.784Z,36
2018-06-10T10:04:40.848Z,35
2018-06-10T10:05:42.918Z,36
2018-06-10T10:06:44.986Z,34
2018-06-10T10:07:47.432Z,36
2018-06-10T10:08:49.908Z,34
2018-06-10T10:09:52.271Z,35
2018-06-10T10:10:54.342Z,36
2018-06-10T10:11:56.403Z,36
2018-06-10T10:12:58.457Z,36
2018-06-10T10:14:00.525Z,39
2018-06-10T10:15:02.591Z,35
2018-06-10T10:16:05.207Z,35
2018-06-10T10:17:07.277Z,34
2018-06-10T10:18:09.640Z,34
2018-06-10T10:19:11.704Z,34
2018-06-10T10:20:13.770Z,36
2018-06-10T10:21:15.834Z,34
2018-06-10T10:22:17.891Z,33
2018-06-10T10:23:20.240Z,34
2018-06-10T10:24:22.300Z,35
2018-06-10T10:25:24.361Z,36
2018-06-10T10:26:26.422Z,36
2018-06-10T10:27:28.480Z,35
2018-06-10T10:28:30.548Z,36
2018-06-10T10:29:32.611Z,34
2018-06-10T10:30:34.657Z,35
2018-06-10T10:31:36.723Z,35
2018-06-10T10:32:38.791Z,37
2018-06-10T10:33:40.853Z,36
2018-06-10T10:34:42.913Z,36
2018-06-10T10:35:44.974Z,35
2018-06-10T10:36:47.332Z,36
2018-06-10T10:37:49.390Z,35
2018-06-10T10:38:51.453Z,36
2018-06-10T10:39:53.522Z,36
2018-06-10T10:40:55.590Z,35
2018-06-10T10:41:57.659Z,38
2018-06-10T10:42:59.731Z,35
2018-06-10T10:44:01.792Z,36
2018-06-10T10:45:04.141Z,36
2018-06-10T10:46:06.204Z,37
2018-06-10T10:47:08.276Z,38
2018-06-10T10:48:10.343Z,36
2018-06-10T10:49:12.393Z,36
2018-06-10T10:50:14.744Z,37
2018-06-10T10:51:16.811Z,38
2018-06-10T10:52:18.867Z,38
2018-06-10T10:53:20.924Z,38
2018-06-10T10:54:23.370Z,36
2018-06-10T10:55:25.445Z,36
2018-06-10T10:56:27.494Z,39
2018-06-10T10:57:29.559Z,38
2018-06-10T10:58:31.635Z,38
2018-06-10T10:59:33.687Z,38
2018-06-10T11:00:35.747Z,38
2018-06-10T11:01:37.801Z,37
2018-06-10T11:02:39.868Z,36
2018-06-10T11:03:41.932Z,37
2018-06-10T11:04:44.272Z,37
2018-06-10T11:05:46.327Z,37
2018-06-10T11:06:49.056Z,35
2018-06-10T11:07:51.501Z,35
2018-06-10T11:08:53.571Z,34
2018-06-10T11:09:55.646Z,35
2018-06-10T11:10:58.007Z,35
2018-06-10T11:12:00.351Z,34
2018-06-10T11:13:02.419Z,35
2018-06-10T11:14:04.480Z,36
2018-06-10T11:15:06.553Z,34
2018-06-10T11:16:08.615Z,33
2018-06-10T11:17:10.678Z,34
2018-06-10T11:18:12.741Z,35
2018-06-10T11:19:14.807Z,35
2018-06-10T11:20:16.896Z,34
2018-06-10T11:21:18.931Z,34
2018-06-10T11:22:20.989Z,35
2018-06-10T11:23:23.059Z,35
2018-06-10T11:24:25.795Z,35
2018-06-10T11:25:27.862Z,35
2018-06-10T11:26:29.915Z,35
2018-06-10T11:27:31.982Z,36
2018-06-10T11:28:34.045Z,38
2018-06-10T11:29:36.115Z,36
2018-06-10T11:30:38.178Z,36
2018-06-10T11:31:40.237Z,37
2018-06-10T11:32:42.300Z,38
2018-06-10T11:33:44.359Z,38
2018-06-10T11:34:46.729Z,38
2018-06-10T11:35:48.795Z,38
2018-06-10T11:36:50.870Z,39
2018-06-10T11:37:53.230Z,40
2018-06-10T11:38:55.286Z,38
2018-06-10T11:39:57.353Z,39
2018-06-10T11:40:59.414Z,41
2018-06-10T11:42:01.477Z,41
2018-06-10T11:43:03.534Z,40
2018-06-10T11:44:05.862Z,41
2018-06-10T11:45:07.933Z,42
2018-06-10T11:46:09.989Z,41
2018-06-10T11:47:12.048Z,43
2018-06-10T11:48:14.107Z,42
2018-06-10T11:49:16.164Z,42
2018-06-10T11:50:18.226Z,42
2018-06-10T11:51:20.872Z,42
2018-06-10T11:52:22.938Z,43
2018-06-10T11:53:25.297Z,43
2018-06-10T11:54:27.626Z,44
2018-06-10T11:55:29.681Z,45
2018-06-10T11:56:31.747Z,45
2018-06-10T11:57:34.083Z,46
2018-06-10T11:58:36.141Z,46
2018-06-10T11:59:38.196Z,47
2018-06-10T12:00:40.254Z,47
2018-06-10T12:01:42.312Z,47
2018-06-10T12:02:44.648Z,48
2018-06-10T12:03:47.045Z,49
2018-06-10T12:04:49.104Z,50
2018-06-10T12:05:51.148Z,50
2018-06-10T12:06:53.212Z,50
2018-06-10T12:07:55.293Z,50
2018-06-10T12:08:57.330Z,51
2018-06-10T12:09:59.379Z,50
2018-06-10T12:11:01.431Z,52
2018-06-10T12:12:03.495Z,51
2018-06-10T12:13:05.825Z,52
2018-06-10T12:14:08.264Z,52
2018-06-10T12:15:10.293Z,52
2018-06-10T12:16:12.612Z,52
2018-06-10T12:17:14.625Z,54
2018-06-10T12:18:16.941Z,53
2018-06-10T12:19:18.977Z,54
2018-06-10T12:20:21.109Z,54
2018-06-10T12:21:23.103Z,55
2018-06-10T12:22:25.441Z,56
2018-06-10T12:23:27.469Z,57
2018-06-10T12:24:29.494Z,57
2018-06-10T12:25:32.026Z,60
2018-06-10T12:26:34.049Z,59
2018-06-10T12:27:36.070Z,58
2018-06-10T12:28:38.090Z,59
2018-06-10T12:29:40.108Z,60
2018-06-10T12:30:42.132Z,61
2018-06-10T12:31:44.152Z,66
2018-06-10T12:32:46.178Z,68
2018-06-10T12:33:48.467Z,64
2018-06-10T12:34:50.483Z,68
2018-06-10T12:35:52.892Z,71
2018-06-10T12:36:55.192Z,70
2018-06-10T12:37:57.233Z,68
2018-06-10T12:38:59.672Z,70
2018-06-10T12:40:01.711Z,70
2018-06-10T12:41:03.808Z,69
2018-06-10T12:42:05.830Z,69
2018-06-10T12:43:08.554Z,72
2018-06-10T12:44:10.568Z,72
2018-06-10T12:45:12.961Z,76
2018-06-10T12:46:14.994Z,77
2018-06-10T12:47:17.006Z,80
2018-06-10T12:48:19.017Z,79
2018-06-10T12:49:21.143Z,81
2018-06-10T12:50:23.108Z,82
2018-06-10T12:51:25.583Z,82
2018-06-10T12:52:28.680Z,83
2018-06-10T12:53:30.685Z,85
2018-06-10T12:54:32.764Z,84
2018-06-10T12:55:35.399Z,84
2018-06-10T12:56:37.412Z,85
2018-06-10T12:57:39.724Z,86
2018-06-10T12:58:41.760Z,86
2018-06-10T12:59:43.836Z,86
2018-06-10T13:00:46.024Z,86
2018-06-10T13:01:48.019Z,86
2018-06-10T13:02:50.323Z,86
2018-06-10T13:03:52.325Z,87
2018-06-10T13:04:54.339Z,86
2018-06-10T13:05:56.341Z,87
2018-06-10T13:06:58.635Z,87
2018-06-10T13:08:00.635Z,87
2018-06-10T13:09:02.651Z,86
2018-06-10T13:10:04.937Z,86
2018-06-10T13:11:07.032Z,87
2018-06-10T13:12:09.336Z,87
2018-06-10T13:13:11.400Z,87
2018-06-10T13:14:13.705Z,87
2018-06-10T13:15:15.732Z,88
2018-06-10T13:16:17.725Z,88
2018-06-10T13:17:19.737Z,88
2018-06-10T13:18:21.743Z,89
2018-06-10T13:19:23.751Z,89
2018-06-10T13:20:26.043Z,88
2018-06-10T13:21:28.268Z,89
2018-06-10T13:22:35.121Z,88
2018-06-10T13:23:43.752Z,88
2018-06-10T13:24:46.117Z,85
2018-06-10T13:25:48.351Z,84
2018-06-10T13:26:50.831Z,82
2018-06-10T13:27:53.117Z,83
2018-06-10T13:28:55.525Z,85
2018-06-10T13:29:57.940Z,86
2018-06-10T13:31:00.039Z,85
2018-06-10T13:32:02.837Z,85
2018-06-10T13:33:04.851Z,86
2018-06-10T13:34:07.593Z,85
2018-06-10T13:35:14.295Z,86
2018-06-10T13:36:16.898Z,86
2018-06-10T13:37:18.912Z,86
2018-06-10T13:38:20.928Z,86
2018-06-10T13:39:24.100Z,85
2018-06-10T13:40:27.239Z,85
2018-06-10T13:41:29.989Z,86
2018-06-10T13:42:34.511Z,86
2018-06-10T13:43:38.550Z,86
2018-06-10T13:44:41.814Z,87
2018-06-10T13:45:44.900Z,87
2018-06-10T13:46:47.469Z,86
2018-06-10T13:47:50.829Z,86
2018-06-10T13:48:54.176Z,86
2018-06-10T13:49:58.668Z,86
2018-06-10T13:51:02.473Z,86
2018-06-10T13:52:05.315Z,86
2018-06-10T13:53:12.915Z,85
2018-06-10T13:54:15.913Z,85
2018-06-10T13:55:20.261Z,85
2018-06-10T13:56:23.701Z,85
2018-06-10T13:57:26.601Z,85
2018-06-10T13:58:29.721Z,86
2018-06-10T13:59:34.880Z,85
2018-06-10T14:00:38.677Z,85
2018-06-10T14:01:43.150Z,82
2018-06-10T14:02:47.576Z,84
2018-06-10T14:03:50.287Z,84
2018-06-10T14:04:52.669Z,83
2018-06-10T14:05:59.449Z,85
2018-06-10T14:07:03.601Z,82
2018-06-10T14:08:07.434Z,82
2018-06-10T14:09:09.912Z,84
2018-06-10T14:10:11.972Z,84
2018-06-10T14:11:14.022Z,82
2018-06-10T14:12:16.080Z,83
2018-06-10T14:13:18.728Z,83
2018-06-10T14:14:20.778Z,81
2018-06-10T14:15:23.123Z,80
2018-06-10T14:16:26.169Z,80
2018-06-10T14:17:28.222Z,80
2018-06-10T14:18:30.271Z,79
2018-06-10T14:19:32.318Z,79
2018-06-10T14:20:34.379Z,79
2018-06-10T14:21:36.708Z,80
2018-06-10T14:22:38.760Z,78
2018-06-10T14:23:41.198Z,79
2018-06-10T14:24:43.253Z,81
2018-06-10T14:25:45.295Z,80
2018-06-10T14:26:47.349Z,80
2018-06-10T14:27:49.690Z,81
2018-06-10T14:28:51.748Z,79
2018-06-10T14:29:54.091Z,80
2018-06-10T14:30:56.532Z,78
2018-06-10T14:31:58.594Z,79
2018-06-10T14:33:00.640Z,78
2018-06-10T14:34:02.685Z,79
2018-06-10T14:35:05.141Z,78
2018-06-10T14:36:07.186Z,80
2018-06-10T14:37:09.621Z,80
2018-06-10T14:38:11.675Z,78
2018-06-10T14:39:13.730Z,80
2018-06-10T14:40:15.773Z,80
2018-06-10T14:41:17.836Z,79
2018-06-10T14:42:20.561Z,81
2018-06-10T14:43:22.619Z,76
2018-06-10T14:44:24.941Z,79
2018-06-10T14:45:27.291Z,77
2018-06-10T14:46:29.334Z,76
2018-06-10T14:47:32.103Z,78
2018-06-10T14:48:34.274Z,78